Time;durP1;ratioP1;P1;durP2;ratioP2;P2;SDS_P1;SDS_P2;PMS_P1;PMS_P2;Temp;Humidity;BMP_temperature;BMP_pressure;BME280_temperature;BME280_humidity;BME280_pressure;Samples;Min_cycle;Max_cycle;Signal;HPM_P1;HPM_P2
2023/03/20 00:01:32;;;;;;;25.90;12.30;;;;;;;4.52;51.68;99090.71;108543;1254;99401;-75
2023/03/20 00:03:58;;;;;;;30.10;13.40;;;;;;;4.51;51.81;99091.45;108701;1253;107773;-75
2023/03/20 00:06:31;;;;;;;27.90;12.30;;;;;;;4.51;51.74;99091.30;108441;1253;95638;-75
2023/03/20 00:08:57;;;;;;;24.90;11.60;;;;;;;4.52;51.94;99088.94;108817;1252;95554;-75
2023/03/20 00:11:33;;;;;;;26.50;12.60;;;;;;;4.53;51.92;99091.34;108914;1253;96041;-75
2023/03/20 00:14:03;;;;;;;28.10;13.60;;;;;;;4.54;52.09;99089.92;108682;1253;100601;-75
2023/03/20 00:16:36;;;;;;;27.10;12.40;;;;;;;4.53;52.16;99088.88;108477;1253;107494;-75
2023/03/20 00:19:05;;;;;;;28.10;12.10;;;;;;;4.53;52.12;99088.21;108498;1253;95634;-75
2023/03/20 00:21:33;;;;;;;28.10;14.40;;;;;;;4.55;52.08;99087.23;108569;1253;95654;-75
2023/03/20 00:24:00;;;;;;;35.10;22.50;;;;;;;4.58;52.18;99087.45;108683;1253;111053;-75
2023/03/20 00:26:32;;;;;;;30.00;16.20;;;;;;;4.58;52.15;99086.21;108932;1252;100637;-75
2023/03/20 00:28:59;;;;;;;38.90;19.20;;;;;;;4.58;52.23;99086.73;108699;1253;107626;-81
2023/03/20 00:31:37;;;;;;;36.30;18.20;;;;;;;4.56;52.21;99087.67;108722;1253;95956;-75
2023/03/20 00:34:11;;;;;;;36.00;17.70;;;;;;;4.57;52.48;99085.92;108509;1253;95621;-75
2023/03/20 00:36:38;;;;;;;39.50;19.20;;;;;;;4.55;52.54;99086.38;108587;1254;111363;-75
2023/03/20 00:39:05;;;;;;;38.90;19.90;;;;;;;4.54;52.46;99079.20;108703;1252;95688;-75
2023/03/20 00:41:45;;;;;;;38.30;18.60;;;;;;;4.53;52.51;99080.13;108628;1253;95677;-75
2023/03/20 00:44:20;;;;;;;39.80;23.10;;;;;;;4.49;52.67;99078.55;108851;1253;95562;-75
2023/03/20 00:46:52;;;;;;;43.30;24.20;;;;;;;4.47;52.66;99073.20;108665;1253;95730;-75
2023/03/20 00:49:27;;;;;;;41.40;22.10;;;;;;;4.47;52.67;99078.83;108504;1253;111502;-75
2023/03/20 00:51:55;;;;;;;37.90;21.20;;;;;;;4.45;52.72;99073.30;108527;1253;101200;-76
2023/03/20 00:54:22;;;;;;;38.40;20.50;;;;;;;4.43;52.73;99075.31;108699;1252;95638;-75
2023/03/20 00:56:54;;;;;;;39.30;20.50;;;;;;;4.43;52.69;99069.20;108708;1253;95603;-75
2023/03/20 00:59:24;;;;;;;34.50;18.40;;;;;;;4.43;52.76;99066.56;108841;1252;95611;-75
2023/03/20 01:01:51;;;;;;;34.10;17.40;;;;;;;4.43;52.91;99061.27;108888;1253;110490;-75
2023/03/20 01:04:20;;;;;;;36.50;18.80;;;;;;;4.43;52.91;99061.79;108535;1253;96125;-75
2023/03/20 01:06:47;;;;;;;36.60;19.40;;;;;;;4.44;53.13;99062.29;108862;1253;107705;-75
2023/03/20 01:09:14;;;;;;;38.30;20.50;;;;;;;4.40;53.10;99064.90;108678;1253;95711;-75
2023/03/20 01:11:43;;;;;;;41.30;22.20;;;;;;;4.38;53.08;99065.92;108656;1253;95658;-75
2023/03/20 01:14:14;;;;;;;36.80;20.40;;;;;;;4.38;53.21;99066.06;108947;1253;110607;-75
2023/03/20 01:16:41;;;;;;;40.10;22.70;;;;;;;4.38;53.30;99068.02;108708;1253;100921;-75
2023/03/20 01:19:17;;;;;;;47.40;25.10;;;;;;;4.37;53.19;99071.91;108643;1253;95691;-75
2023/03/20 01:21:44;;;;;;;49.30;27.70;;;;;;;4.38;53.30;99074.31;108873;1252;95655;-75
2023/03/20 01:24:11;;;;;;;49.20;28.60;;;;;;;4.36;53.28;99077.25;108932;1253;95604;-75
2023/03/20 01:26:43;;;;;;;40.20;23.70;;;;;;;4.33;53.28;99080.34;108755;1253;95762;-75
2023/03/20 01:29:26;;;;;;;47.30;26.40;;;;;;;4.33;53.44;99083.17;108740;1253;100812;-75
2023/03/20 01:31:54;;;;;;;53.20;32.40;;;;;;;4.33;53.59;99082.63;108672;1253;107688;-75
2023/03/20 01:34:22;;;;;;;49.30;27.70;;;;;;;4.32;53.51;99081.24;108644;1253;95611;-75
2023/03/20 01:36:51;;;;;;;58.00;32.90;;;;;;;4.31;53.42;99082.52;108703;1253;95598;-75
2023/03/20 01:39:32;;;;;;;54.60;31.40;;;;;;;4.34;53.54;99082.27;108594;1253;111058;-75
2023/03/20 01:42:01;;;;;;;54.30;29.40;;;;;;;4.30;53.63;99082.21;108516;1253;101153;-75
2023/03/20 01:44:31;;;;;;;52.80;29.90;;;;;;;4.28;53.67;99078.61;108849;1253;105721;-75
2023/03/20 01:47:00;;;;;;;51.60;30.00;;;;;;;4.27;53.74;99078.71;108845;1253;95659;-75
2023/03/20 01:49:27;;;;;;;55.50;30.70;;;;;;;4.23;53.83;99081.19;108722;1253;95695;-75
2023/03/20 01:51:55;;;;;;;47.80;28.70;;;;;;;4.21;53.82;99080.91;108904;1252;95681;-75
2023/03/20 01:54:29;;;;;;;52.70;29.80;;;;;;;4.17;53.74;99080.22;108646;1253;100761;-75
2023/03/20 01:57:03;;;;;;;57.50;31.60;;;;;;;4.13;53.70;99082.46;108858;1252;107288;-75
2023/03/20 01:59:31;;;;;;;49.00;27.80;;;;;;;4.13;54.06;99077.05;108723;1252;95600;-75
2023/03/20 02:01:58;;;;;;;54.10;29.40;;;;;;;4.12;53.94;99079.71;108852;1253;95627;-75
2023/03/20 02:04:32;;;;;;;47.70;27.10;;;;;;;4.12;53.97;99077.80;108901;1253;95574;-75
2023/03/20 02:07:00;;;;;;;46.00;26.40;;;;;;;4.10;54.26;99082.10;108715;1253;100837;-75
2023/03/20 02:09:27;;;;;;;47.50;26.60;;;;;;;4.09;54.23;99079.69;108858;1253;95701;-75
2023/03/20 02:11:55;;;;;;;47.60;27.10;;;;;;;4.07;54.27;99077.84;108689;1253;95601;-75
2023/03/20 02:14:22;;;;;;;45.80;26.80;;;;;;;4.08;54.08;99080.10;108872;1253;95654;-75
2023/03/20 02:16:49;;;;;;;43.40;24.70;;;;;;;4.07;54.02;99078.22;108765;1253;95705;-75
2023/03/20 02:20:17;;;;;;;42.50;23.30;;;;;;;4.07;54.33;99077.14;108561;1253;95690;-76
2023/03/20 02:23:13;;;;;;;47.30;24.20;;;;;;;4.05;54.35;99074.62;108177;1261;107687;-76
2023/03/20 02:25:57;;;;;;;41.40;21.60;;;;;;;4.06;54.50;99072.84;108201;1260;95716;-75
2023/03/20 02:29:01;;;;;;;39.70;20.60;;;;;;;4.06;54.31;99070.54;108676;1253;95621;-75
2023/03/20 02:32:05;;;;;;;35.70;18.90;;;;;;;4.07;54.44;99065.59;108801;1253;111245;-75
2023/03/20 02:34:57;;;;;;;35.10;17.90;;;;;;;4.05;54.67;99067.05;108833;1253;101114;-75
2023/03/20 02:37:33;;;;;;;36.00;18.00;;;;;;;4.06;54.45;99066.85;108855;1253;106739;-75
2023/03/20 02:40:03;;;;;;;32.00;16.30;;;;;;;4.09;54.57;99065.46;108868;1252;95661;-75
2023/03/20 02:42:39;;;;;;;28.80;15.10;;;;;;;4.10;54.60;99063.50;108856;1253;95677;-75
2023/03/20 02:45:25;;;;;;;32.90;16.70;;;;;;;4.11;54.71;99064.49;108848;1253;111245;-75
2023/03/20 02:48:22;;;;;;;38.00;17.40;;;;;;;4.14;54.81;99062.42;108859;1253;101148;-75
2023/03/20 02:51:06;;;;;;;32.80;16.60;;;;;;;4.19;54.82;99059.23;108718;1253;107478;-75
2023/03/20 02:53:51;;;;;;;33.70;16.30;;;;;;;4.23;54.86;99059.60;108542;1252;95723;-75
2023/03/20 02:56:42;;;;;;;28.60;14.80;;;;;;;4.25;54.93;99060.74;108687;1253;96675;-75
2023/03/20 02:59:24;;;;;;;31.00;16.00;;;;;;;4.28;54.71;99058.63;108913;1253;110828;-75
2023/03/20 03:01:56;;;;;;;26.00;13.10;;;;;;;4.33;54.78;99049.45;108930;1252;100935;-75
2023/03/20 03:04:29;;;;;;;25.20;12.10;;;;;;;4.37;54.95;99052.10;108693;1253;107505;-81
2023/03/20 03:06:58;;;;;;;27.80;13.90;;;;;;;4.39;55.08;99049.70;108612;1254;95602;-75
2023/03/20 03:09:30;;;;;;;30.10;14.50;;;;;;;4.41;55.02;99049.59;108626;1253;95630;-75
2023/03/20 03:12:05;;;;;;;29.90;14.70;;;;;;;4.43;55.11;99048.66;108609;1253;110378;-79
2023/03/20 03:14:32;;;;;;;31.00;15.40;;;;;;;4.45;55.03;99048.90;108663;1253;100195;-75
2023/03/20 03:17:01;;;;;;;30.00;14.50;;;;;;;4.47;55.21;99047.23;108810;1253;95670;-75
2023/03/20 03:19:28;;;;;;;28.00;14.30;;;;;;;4.49;55.16;99046.94;108498;1252;95583;-76
2023/03/20 03:21:54;;;;;;;28.90;13.80;;;;;;;4.51;55.21;99045.45;108920;1252;96195;-75
2023/03/20 03:24:31;;;;;;;28.40;14.20;;;;;;;4.53;55.27;99046.42;108879;1253;96167;-75
2023/03/20 03:27:21;;;;;;;27.40;12.30;;;;;;;4.53;55.44;99048.86;108919;1253;101238;-75
2023/03/20 03:30:01;;;;;;;27.60;12.90;;;;;;;4.53;55.53;99050.27;108876;1252;107183;-75
2023/03/20 03:32:33;;;;;;;27.30;13.40;;;;;;;4.55;55.53;99047.91;108909;1252;95627;-75
2023/03/20 03:35:02;;;;;;;28.70;13.20;;;;;;;4.54;55.61;99048.62;108843;1254;96153;-81
2023/03/20 03:37:54;;;;;;;29.40;14.30;;;;;;;4.55;55.59;99046.83;108584;1259;110948;-75
2023/03/20 03:40:42;;;;;;;25.90;13.00;;;;;;;4.57;55.59;99045.33;108885;1253;100902;-75
2023/03/20 03:43:41;;;;;;;27.20;13.30;;;;;;;4.58;55.59;99043.72;108889;1253;108371;-75
2023/03/20 03:46:17;;;;;;;27.10;13.10;;;;;;;4.58;55.58;99040.01;108853;1253;95661;-75
2023/03/20 03:48:50;;;;;;;27.40;13.30;;;;;;;4.58;55.68;99041.41;108883;1253;96548;-75
2023/03/20 03:51:22;;;;;;;26.90;13.90;;;;;;;4.58;55.63;99035.98;108581;1252;111433;-75
2023/03/20 03:53:57;;;;;;;28.00;13.80;;;;;;;4.56;55.79;99041.84;108678;1254;100630;-76
2023/03/20 03:56:28;;;;;;;29.30;14.30;;;;;;;4.57;55.78;99041.66;108664;1253;105310;-75
2023/03/20 03:58:59;;;;;;;27.30;13.80;;;;;;;4.55;55.76;99045.58;108875;1253;95651;-82
2023/03/20 04:01:27;;;;;;;25.20;13.30;;;;;;;4.57;55.80;99043.23;108637;1253;95646;-75
2023/03/20 04:03:59;;;;;;;23.60;11.20;;;;;;;4.59;55.80;99041.74;108526;1254;111413;-75
2023/03/20 04:06:27;;;;;;;20.80;10.20;;;;;;;4.63;55.89;99043.11;108414;1254;100992;-75
2023/03/20 04:08:54;;;;;;;22.80;9.80;;;;;;;4.69;55.88;99046.00;108699;1252;95730;-75
2023/03/20 04:11:23;;;;;;;20.40;9.80;;;;;;;4.74;55.91;99042.75;108516;1253;95746;-79
2023/03/20 04:13:51;;;;;;;21.60;8.70;;;;;;;4.79;55.93;99046.57;108703;1253;96024;-75
2023/03/20 04:16:20;;;;;;;20.50;9.20;;;;;;;4.83;55.94;99044.77;108645;1254;110293;-75
2023/03/20 04:18:47;;;;;;;20.80;9.30;;;;;;;4.89;55.90;99047.27;108670;1253;101219;-75
2023/03/20 04:21:15;;;;;;;20.70;9.20;;;;;;;4.95;55.95;99044.39;108822;1253;96254;-74
2023/03/20 04:23:42;;;;;;;20.60;8.50;;;;;;;5.00;55.83;99041.33;108856;1253;95631;-74
2023/03/20 04:26:09;;;;;;;21.10;9.60;;;;;;;5.03;55.94;99042.38;108904;1252;95569;-75
2023/03/20 04:28:35;;;;;;;21.20;9.10;;;;;;;5.06;55.90;99042.91;108709;1253;95592;-74
2023/03/20 04:31:02;;;;;;;21.70;9.50;;;;;;;5.09;55.86;99042.99;108681;1252;95659;-75
2023/03/20 04:33:29;;;;;;;22.60;9.90;;;;;;;5.12;56.01;99043.50;108839;1253;95604;-79
2023/03/20 04:35:56;;;;;;;21.70;9.80;;;;;;;5.15;55.95;99042.64;108679;1252;96025;-74
2023/03/20 04:38:24;;;;;;;22.90;9.90;;;;;;;5.17;55.92;99042.89;108651;1253;110883;-74
2023/03/20 04:40:51;;;;;;;23.90;10.80;;;;;;;5.22;55.97;99047.08;108837;1254;99702;-75
2023/03/20 04:43:17;;;;;;;24.40;10.80;;;;;;;5.25;56.02;99048.36;108842;1254;96126;-75
2023/03/20 04:45:44;;;;;;;23.00;9.90;;;;;;;5.27;55.98;99045.59;108732;1253;95651;-75
2023/03/20 04:48:11;;;;;;;24.60;10.90;;;;;;;5.30;55.97;99048.26;108382;1253;95900;-79
2023/03/20 04:50:38;;;;;;;23.90;11.10;;;;;;;5.34;56.00;99047.87;108646;1253;95848;-76
2023/03/20 04:53:04;;;;;;;23.30;11.70;;;;;;;5.36;56.06;99051.59;108563;1253;95749;-75
2023/03/20 04:55:31;;;;;;;25.80;10.70;;;;;;;5.40;55.98;99048.09;108634;1253;95880;-78
2023/03/20 04:57:57;;;;;;;26.40;11.50;;;;;;;5.44;55.99;99048.59;108735;1252;95944;-78
2023/03/20 05:00:24;;;;;;;24.00;11.70;;;;;;;5.47;56.07;99052.65;108779;1253;95981;-75
2023/03/20 05:02:52;;;;;;;23.70;11.60;;;;;;;5.50;56.03;99055.48;108767;1252;95882;-76
2023/03/20 05:05:19;;;;;;;25.10;11.80;;;;;;;5.53;56.06;99056.19;108828;1252;95573;-75
2023/03/20 05:07:45;;;;;;;26.60;11.70;;;;;;;5.57;56.13;99057.58;108884;1252;95551;-74
2023/03/20 05:10:12;;;;;;;27.10;13.40;;;;;;;5.59;56.12;99054.35;108906;1253;95694;-75
2023/03/20 05:12:39;;;;;;;27.10;12.50;;;;;;;5.59;56.17;99057.64;108856;1254;99848;-75
2023/03/20 05:15:09;;;;;;;33.40;15.60;;;;;;;5.56;56.12;99063.61;108869;1253;95979;-75
2023/03/20 05:17:36;;;;;;;35.90;19.70;;;;;;;5.54;56.20;99060.75;108694;1252;95711;-75
2023/03/20 05:20:04;;;;;;;39.30;21.40;;;;;;;5.52;56.22;99062.77;108917;1252;96211;-75
2023/03/20 05:22:30;;;;;;;42.10;23.20;;;;;;;5.49;56.30;99060.27;108856;1253;95562;-75
2023/03/20 05:24:57;;;;;;;41.00;22.50;;;;;;;5.46;56.26;99061.16;108700;1252;95670;-74
2023/03/20 05:27:24;;;;;;;43.10;24.10;;;;;;;5.40;56.34;99064.80;108611;1253;95645;-75
2023/03/20 05:29:50;;;;;;;43.80;22.80;;;;;;;5.38;56.33;99062.62;108670;1253;95585;-75
2023/03/20 05:32:17;;;;;;;41.30;23.90;;;;;;;5.35;56.34;99063.95;108717;1253;95573;-75
2023/03/20 05:34:43;;;;;;;42.60;23.80;;;;;;;5.34;56.46;99061.53;108769;1253;99728;-75
2023/03/20 05:37:10;;;;;;;42.90;22.20;;;;;;;5.37;56.46;99065.09;108827;1253;95691;-77
2023/03/20 05:39:37;;;;;;;40.70;21.80;;;;;;;5.43;56.66;99064.27;108879;1253;95851;-75
2023/03/20 05:42:04;;;;;;;41.30;21.00;;;;;;;5.48;56.56;99063.52;108915;1253;95594;-75
2023/03/20 05:44:31;;;;;;;41.00;21.20;;;;;;;5.56;56.64;99064.66;108766;1253;95768;-75
2023/03/20 05:46:57;;;;;;;44.10;22.90;;;;;;;5.66;56.73;99059.92;108818;1253;107207;-75
2023/03/20 05:49:24;;;;;;;45.20;22.30;;;;;;;5.77;56.73;99062.67;108727;1252;95693;-75
2023/03/20 05:51:50;;;;;;;34.60;17.10;;;;;;;5.89;56.71;99063.86;108892;1253;95566;-75
2023/03/20 05:54:17;;;;;;;31.30;14.80;;;;;;;6.01;56.85;99063.94;108720;1252;95771;-75
2023/03/20 05:56:45;;;;;;;29.50;13.30;;;;;;;6.14;56.78;99067.99;108971;1253;95986;-74
2023/03/20 05:59:12;;;;;;;25.80;12.00;;;;;;;6.26;56.86;99069.08;108830;1253;95642;-77
2023/03/20 06:01:38;;;;;;;26.40;12.10;;;;;;;6.37;56.90;99066.18;108661;1253;95720;-75
2023/03/20 06:04:05;;;;;;;26.20;12.20;;;;;;;6.48;56.78;99058.17;108883;1252;95684;-75
2023/03/20 06:06:34;;;;;;;27.40;12.70;;;;;;;6.59;56.78;99057.39;108890;1254;96193;-73
2023/03/20 06:09:01;;;;;;;28.80;12.40;;;;;;;6.69;56.83;99060.22;108736;1253;95671;-74
2023/03/20 06:11:28;;;;;;;27.40;13.20;;;;;;;6.78;56.83;99061.27;108710;1253;95886;-74
2023/03/20 06:13:54;;;;;;;29.00;13.30;;;;;;;6.89;56.76;99060.88;108528;1253;95707;-75
2023/03/20 06:16:21;;;;;;;29.80;14.60;;;;;;;6.98;56.83;99061.73;108755;1252;96037;-74
2023/03/20 06:18:48;;;;;;;32.80;17.60;;;;;;;7.05;56.92;99060.42;108855;1253;95743;-73
2023/03/20 06:21:15;;;;;;;33.90;18.70;;;;;;;7.10;56.96;99064.73;108618;1253;96205;-77
2023/03/20 06:23:41;;;;;;;29.30;14.80;;;;;;;7.16;57.00;99063.89;108866;1252;95701;-73
2023/03/20 06:26:08;;;;;;;25.10;11.80;;;;;;;7.23;57.01;99065.73;108868;1253;96318;-73
2023/03/20 06:28:36;;;;;;;22.40;10.90;;;;;;;7.34;56.97;99061.60;108704;1253;95931;-74
2023/03/20 06:31:02;;;;;;;23.30;10.50;;;;;;;7.46;57.03;99059.67;108707;1252;95937;-73
2023/03/20 06:33:29;;;;;;;23.50;10.20;;;;;;;7.58;56.96;99064.75;108462;1259;96036;-76
2023/03/20 06:35:56;;;;;;;22.70;9.80;;;;;;;7.71;56.77;99062.17;108617;1252;95925;-75
2023/03/20 06:38:23;;;;;;;22.00;9.90;;;;;;;7.85;56.90;99062.41;108784;1253;100681;-73
2023/03/20 06:40:49;;;;;;;23.20;10.20;;;;;;;7.99;57.01;99061.54;108895;1252;95599;-73
2023/03/20 06:43:16;;;;;;;21.50;10.50;;;;;;;8.13;56.86;99061.95;108568;1253;95705;-74
2023/03/20 06:45:43;;;;;;;26.40;10.30;;;;;;;8.25;56.97;99063.64;108920;1254;95601;-73
2023/03/20 06:48:10;;;;;;;24.30;10.60;;;;;;;8.35;56.74;99069.17;108943;1252;96849;-77
2023/03/20 06:50:36;;;;;;;23.70;12.30;;;;;;;8.45;56.55;99070.34;108866;1252;107712;-73
2023/03/20 06:53:03;;;;;;;25.20;10.70;;;;;;;8.55;56.79;99069.20;108883;1252;95566;-73
2023/03/20 06:55:30;;;;;;;25.20;10.80;;;;;;;8.62;56.72;99069.80;108904;1252;95597;-73
2023/03/20 06:57:56;;;;;;;23.60;9.90;;;;;;;8.70;56.64;99066.84;108851;1253;95709;-73
2023/03/20 07:00:23;;;;;;;22.50;10.70;;;;;;;8.77;56.78;99071.31;108917;1254;95737;-73
2023/03/20 07:02:50;;;;;;;21.70;10.60;;;;;;;8.83;56.65;99069.37;108895;1253;95882;-74
2023/03/20 07:05:17;;;;;;;22.70;10.00;;;;;;;8.90;56.75;99071.55;108625;1252;95929;-73
2023/03/20 07:07:43;;;;;;;23.70;10.70;;;;;;;8.98;56.77;99071.55;108661;1253;95651;-73
2023/03/20 07:10:11;;;;;;;24.80;10.50;;;;;;;9.04;56.71;99074.70;108920;1253;96087;-73
2023/03/20 07:12:38;;;;;;;23.00;10.40;;;;;;;9.11;56.66;99069.14;108853;1252;95616;-73
2023/03/20 07:15:06;;;;;;;24.70;11.10;;;;;;;9.18;56.60;99072.34;108669;1253;96062;-73
2023/03/20 07:17:33;;;;;;;27.10;12.30;;;;;;;9.26;56.59;99073.63;108889;1252;95676;-74
2023/03/20 07:20:00;;;;;;;24.90;10.90;;;;;;;9.33;56.51;99075.09;108676;1253;95670;-73
2023/03/20 07:22:29;;;;;;;25.80;11.20;;;;;;;9.42;56.59;99072.16;108504;1253;95639;-73
2023/03/20 07:24:58;;;;;;;25.30;12.10;;;;;;;9.53;56.48;99072.71;108877;1252;95802;-76
2023/03/20 07:27:25;;;;;;;26.80;11.80;;;;;;;9.64;56.58;99070.52;108550;1253;95596;-73
2023/03/20 07:29:52;;;;;;;24.40;11.40;;;;;;;9.74;56.54;99069.69;108927;1252;95595;-73
2023/03/20 07:32:19;;;;;;;22.90;10.60;;;;;;;9.82;56.62;99070.85;108910;1253;95716;-74
2023/03/20 07:34:46;;;;;;;22.40;10.20;;;;;;;9.92;56.55;99070.57;108652;1253;95742;-74
2023/03/20 07:37:12;;;;;;;23.20;9.40;;;;;;;10.00;56.48;99071.06;108858;1254;95605;-73
2023/03/20 07:39:39;;;;;;;21.10;9.90;;;;;;;10.05;56.48;99073.16;108791;1254;95734;-74
2023/03/20 07:42:05;;;;;;;19.50;8.80;;;;;;;10.10;56.30;99072.14;108868;1252;111299;-73
2023/03/20 07:44:32;;;;;;;22.90;9.10;;;;;;;10.12;56.36;99073.74;108763;1252;95641;-78
2023/03/20 07:47:00;;;;;;;22.20;10.00;;;;;;;10.14;56.28;99074.69;108941;1253;96882;-73
2023/03/20 07:49:26;;;;;;;22.80;10.10;;;;;;;10.16;56.23;99075.79;108728;1253;95643;-73
2023/03/20 07:51:55;;;;;;;21.00;9.30;;;;;;;10.16;56.28;99077.91;108930;1252;95832;-73
2023/03/20 07:54:22;;;;;;;21.30;9.20;;;;;;;10.15;56.22;99082.08;108827;1253;95659;-73
2023/03/20 07:56:51;;;;;;;21.90;10.10;;;;;;;10.11;56.12;99081.06;108852;1253;101244;-73
2023/03/20 07:59:18;;;;;;;22.30;9.40;;;;;;;10.08;56.13;99085.89;108509;1253;107274;-78
2023/03/20 08:01:45;;;;;;;21.10;9.10;;;;;;;10.05;55.91;99088.26;108746;1252;96050;-73
2023/03/20 08:04:18;;;;;;;20.90;9.10;;;;;;;10.03;55.92;99087.87;108934;1252;95959;-73
2023/03/20 08:06:45;;;;;;;23.40;9.50;;;;;;;10.02;55.85;99087.40;108926;1252;110262;-77
2023/03/20 08:09:11;;;;;;;22.00;9.20;;;;;;;10.00;55.92;99088.60;108883;1254;95683;-73
2023/03/20 08:11:38;;;;;;;20.60;9.30;;;;;;;10.02;55.92;99088.46;108567;1253;95648;-73
2023/03/20 08:14:05;;;;;;;20.50;9.00;;;;;;;10.04;55.87;99088.17;108421;1254;95736;-73
2023/03/20 08:16:32;;;;;;;21.50;9.00;;;;;;;10.06;55.82;99090.64;108859;1252;96134;-73
2023/03/20 08:19:02;;;;;;;19.70;8.20;;;;;;;10.09;55.79;99085.11;108793;1253;95693;-73
2023/03/20 08:21:30;;;;;;;19.50;8.40;;;;;;;10.13;55.69;99084.15;108887;1253;107179;-74
2023/03/20 08:23:58;;;;;;;20.40;8.40;;;;;;;10.15;55.67;99084.02;108698;1253;96173;-73
2023/03/20 08:26:25;;;;;;;19.60;8.70;;;;;;;10.19;55.58;99088.14;108693;1253;95694;-78
2023/03/20 08:28:51;;;;;;;19.70;8.20;;;;;;;10.24;55.60;99086.21;108851;1253;95711;-74
2023/03/20 08:31:19;;;;;;;19.90;8.70;;;;;;;10.29;55.58;99089.05;108857;1253;95649;-73
2023/03/20 08:33:46;;;;;;;21.80;9.20;;;;;;;10.35;55.40;99088.66;108878;1253;95634;-73
2023/03/20 08:36:14;;;;;;;20.70;8.70;;;;;;;10.43;55.56;99088.63;108848;1253;95575;-73
2023/03/20 08:38:42;;;;;;;20.10;9.00;;;;;;;10.52;55.39;99088.17;108847;1253;96014;-73
2023/03/20 08:41:08;;;;;;;19.70;8.40;;;;;;;10.57;55.42;99087.06;108660;1253;111559;-74
2023/03/20 08:43:35;;;;;;;19.80;8.60;;;;;;;10.61;55.31;99089.13;108832;1254;96052;-73
2023/03/20 08:46:02;;;;;;;22.70;9.70;;;;;;;10.67;53.79;99091.17;108861;1253;95579;-73
2023/03/20 08:48:28;;;;;;;21.00;8.90;;;;;;;10.75;54.44;99083.15;108862;1252;96831;-73
2023/03/20 08:50:55;;;;;;;21.50;9.30;;;;;;;10.84;53.89;99083.19;108908;1253;95630;-73
2023/03/20 08:53:22;;;;;;;23.30;9.80;;;;;;;10.93;54.70;99080.09;108584;1253;101020;-73
2023/03/20 08:55:50;;;;;;;20.50;8.50;;;;;;;10.95;54.88;99077.56;108814;1254;96045;-74
2023/03/20 08:58:18;;;;;;;22.90;10.20;;;;;;;10.99;54.87;99079.98;108767;1253;192367;-74
2023/03/20 09:00:45;;;;;;;23.10;9.20;;;;;;;11.04;54.87;99073.89;108780;1254;95613;-74
2023/03/20 09:03:16;;;;;;;19.70;9.00;;;;;;;11.11;54.64;99071.66;108669;1253;95702;-77
2023/03/20 09:05:44;;;;;;;20.30;8.90;;;;;;;11.20;53.93;99076.09;108601;1253;99867;-73
2023/03/20 09:08:12;;;;;;;22.70;10.40;;;;;;;11.30;54.65;99073.23;108855;1256;107236;-74
2023/03/20 09:10:39;;;;;;;22.30;10.20;;;;;;;11.37;54.57;99076.10;108891;1252;95637;-73
2023/03/20 09:13:06;;;;;;;22.30;10.40;;;;;;;11.39;54.55;99074.29;108892;1253;96034;-73
2023/03/20 09:15:53;;;;;;;20.40;9.90;;;;;;;11.45;54.69;99075.48;108761;1254;111295;-73
2023/03/20 09:18:21;;;;;;;22.70;10.50;;;;;;;11.52;54.63;99066.77;108899;1253;100707;-74
2023/03/20 09:20:48;;;;;;;23.40;10.30;;;;;;;11.57;54.42;99062.64;108872;1253;96035;-73
2023/03/20 09:23:15;;;;;;;23.60;11.40;;;;;;;11.67;54.40;99066.55;108695;1253;95913;-78
2023/03/20 09:25:41;;;;;;;24.70;11.60;;;;;;;11.77;54.04;99067.54;108649;1256;95665;-73
2023/03/20 09:28:08;;;;;;;26.80;12.40;;;;;;;11.89;53.26;99068.53;108891;1254;95583;-73
2023/03/20 09:30:35;;;;;;;31.10;15.60;;;;;;;12.05;53.13;99071.81;108892;1256;95718;-73
2023/03/20 09:33:06;;;;;;;28.00;14.30;;;;;;;12.13;52.28;99071.84;108856;1254;95840;-73
2023/03/20 09:35:32;;;;;;;27.40;14.00;;;;;;;12.21;52.66;99073.90;108673;1253;95610;-73
2023/03/20 09:37:59;;;;;;;30.20;14.90;;;;;;;12.28;51.96;99069.68;108988;1254;95562;-74
2023/03/20 09:40:30;;;;;;;26.20;13.00;;;;;;;12.35;53.01;99075.27;108901;1253;95780;-73
2023/03/20 09:43:14;;;;;;;28.30;13.50;;;;;;;12.40;51.54;99071.34;108527;1253;100564;-74
2023/03/20 09:45:41;;;;;;;27.50;13.50;;;;;;;12.44;52.05;99072.80;108561;1253;107544;-74
2023/03/20 09:48:22;;;;;;;27.60;13.70;;;;;;;12.50;52.61;99077.14;108873;1254;95641;-74
2023/03/20 09:51:10;;;;;;;26.90;12.90;;;;;;;12.58;52.98;99071.48;108557;1259;95635;-73
2023/03/20 09:53:56;;;;;;;32.40;15.80;;;;;;;12.71;52.21;99068.54;108865;1253;111982;-76
2023/03/20 09:56:28;;;;;;;31.00;15.00;;;;;;;12.85;52.26;99068.25;108599;1253;101190;-74
2023/03/20 09:58:57;;;;;;;31.00;14.90;;;;;;;12.92;51.61;99067.16;108878;1254;107688;-74
2023/03/20 10:01:29;;;;;;;30.50;16.50;;;;;;;12.99;50.65;99066.08;108741;1254;95668;-74
2023/03/20 10:04:00;;;;;;;27.20;14.50;;;;;;;13.03;50.62;99063.02;108704;1253;95577;-78
2023/03/20 10:06:27;;;;;;;30.40;15.20;;;;;;;13.12;51.62;99063.88;108878;1253;110656;-74
2023/03/20 10:08:54;;;;;;;32.00;16.60;;;;;;;13.23;51.35;99063.52;108883;1254;95636;-74
2023/03/20 10:12:05;;;;;;;29.60;14.80;;;;;;;13.31;50.04;99060.55;108845;1254;95685;-74
2023/03/20 10:14:44;;;;;;;32.70;16.00;;;;;;;13.31;49.74;99059.18;108863;1253;96602;-74
2023/03/20 10:17:32;;;;;;;27.50;14.60;;;;;;;13.37;51.89;99049.75;108920;1254;95598;-78
2023/03/20 10:20:24;;;;;;;31.00;14.70;;;;;;;13.49;52.08;99050.19;108931;1253;111208;-74
2023/03/20 10:22:57;;;;;;;27.80;15.00;;;;;;;13.56;51.09;99056.52;108880;1253;99969;-74
2023/03/20 10:25:32;;;;;;;31.90;15.80;;;;;;;13.60;50.45;99052.48;108899;1253;107617;-74
2023/03/20 10:28:03;;;;;;;30.70;15.10;;;;;;;13.61;51.09;99053.11;108805;1253;95892;-74
2023/03/20 10:30:46;;;;;;;29.80;15.10;;;;;;;13.65;51.13;99049.53;108655;1254;95721;-74
2023/03/20 10:33:23;;;;;;;;;;;;;;;13.68;50.43;99046.78;108601;1254;111383;-74
2023/03/20 10:36:08;;;;;;;26.80;14.00;;;;;;;13.68;51.23;99045.91;108877;1254;100629;-74
2023/03/20 10:39:06;;;;;;;28.90;15.20;;;;;;;13.67;51.22;99041.48;108672;1253;105736;-74
2023/03/20 10:41:37;;;;;;;28.90;14.60;;;;;;;13.65;51.79;99041.15;108814;1256;95584;-78
2023/03/20 10:44:13;;;;;;;28.20;14.50;;;;;;;13.60;51.04;99041.46;108909;1254;95675;-74
2023/03/20 10:46:45;;;;;;;28.60;14.50;;;;;;;13.53;50.96;99039.61;108926;1254;111215;-75
2023/03/20 10:49:18;;;;;;;28.30;15.50;;;;;;;13.48;51.39;99037.79;108736;1254;100638;-74
2023/03/20 10:51:55;;;;;;;29.60;14.50;;;;;;;13.42;50.61;99034.88;108874;1254;107114;-74
2023/03/20 10:54:33;;;;;;;28.40;14.70;;;;;;;13.36;49.91;99030.37;108882;1256;95658;-74
2023/03/20 10:57:03;;;;;;;29.40;14.40;;;;;;;13.31;50.36;99029.42;108937;1252;95613;-74
2023/03/20 10:59:39;;;;;;;27.90;14.30;;;;;;;13.27;50.09;99026.37;108748;1254;111284;-74
2023/03/20 11:02:12;;;;;;;28.80;14.10;;;;;;;13.22;50.55;99024.59;108960;1253;99919;-74
2023/03/20 11:04:39;;;;;;;28.30;15.10;;;;;;;13.19;50.85;99023.80;108887;1254;107812;-74
2023/03/20 11:07:27;;;;;;;27.90;14.60;;;;;;;13.18;50.87;99022.48;108550;1254;96052;-74
2023/03/20 11:10:03;;;;;;;27.50;14.60;;;;;;;13.16;51.03;99015.02;108707;1252;95609;-74
2023/03/20 11:12:39;;;;;;;28.60;14.40;;;;;;;13.18;50.66;99018.94;108915;1254;110884;-74
2023/03/20 11:15:28;;;;;;;25.80;13.50;;;;;;;13.22;51.02;99009.53;108957;1253;99775;-74
2023/03/20 11:18:00;;;;;;;27.70;13.00;;;;;;;13.21;51.15;99009.21;108849;1254;107397;-74
2023/03/20 11:20:34;;;;;;;26.70;13.70;;;;;;;13.23;51.13;99010.07;108668;1254;95648;-74
2023/03/20 11:23:09;;;;;;;29.00;13.50;;;;;;;13.26;51.11;99007.01;108753;1254;95709;-74
2023/03/20 11:25:38;;;;;;;26.60;13.20;;;;;;;13.32;51.14;99005.79;108555;1254;111260;-74
2023/03/20 11:28:20;;;;;;;28.40;14.30;;;;;;;13.37;50.82;99008.89;108727;1254;100909;-74
2023/03/20 11:30:50;;;;;;;25.90;12.70;;;;;;;13.45;50.28;99004.17;108599;1254;107130;-74
2023/03/20 11:33:35;;;;;;;27.10;14.30;;;;;;;13.54;49.49;99006.11;108898;1256;95533;-73